Time;durP1;ratioP1;P1;durP2;ratioP2;P2;SDS_P1;SDS_P2;PMS_P1;PMS_P2;Temp;Humidity;BMP_temperature;BMP_pressure;BME280_temperature;BME280_humidity;BME280_pressure;Samples;Min_cycle;Max_cycle;Signal;HPM_P1;HPM_P2
2022/09/05 00:00:09;;;;;;;5.72;2.13;;;20.10;99.90;;;;;;4993184;28;20017;-51
2022/09/05 00:03:10;;;;;;;5.25;2.60;;;20.20;99.90;;;;;;5010030;28;20060;-49
2022/09/05 00:05:57;;;;;;;8.43;2.50;;;20.20;99.90;;;;;;4946516;28;20062;-50
2022/09/05 00:08:34;;;;;;;4.93;2.53;;;20.10;99.90;;;;;;4980043;28;20563;-53
2022/09/05 00:11:34;;;;;;;6.90;2.85;;;20.10;99.90;;;;;;4989439;28;20038;-51
2022/09/05 00:14:02;;;;;;;13.07;3.35;;;19.80;99.90;;;;;;4989763;28;20031;-57
2022/09/05 00:16:34;;;;;;;15.48;4.13;;;19.60;99.90;;;;;;4979182;28;20026;-51
2022/09/05 00:19:25;;;;;;;11.90;3.60;;;19.30;99.90;;;;;;4991391;28;20358;-52
2022/09/05 00:21:53;;;;;;;8.50;3.10;;;19.10;99.90;;;;;;4991255;28;20481;-51
2022/09/05 00:24:59;;;;;;;12.17;4.20;;;19.00;99.90;;;;;;4991590;28;20036;-49
2022/09/05 00:27:52;;;;;;;8.82;3.53;;;18.80;99.90;;;;;;4994554;28;20268;-52
2022/09/05 00:30:20;;;;;;;9.23;3.95;;;18.80;99.90;;;;;;4984218;28;20034;-50
2022/09/05 00:33:24;;;;;;;11.10;3.35;;;18.70;99.90;;;;;;4994795;28;20034;-49
2022/09/05 00:36:08;;;;;;;10.68;3.78;;;18.60;99.90;;;;;;4995023;28;20026;-51
2022/09/05 00:38:38;;;;;;;9.13;4.05;;;18.60;99.90;;;;;;4993738;28;20030;-55
2022/09/05 00:41:08;;;;;;;10.05;4.20;;;18.40;99.90;;;;;;4982790;28;20045;-54
2022/09/05 00:43:39;;;;;;;8.68;3.75;;;18.40;99.90;;;;;;4994748;28;20018;-54
2022/09/05 00:46:09;;;;;;;11.13;3.60;;;18.40;99.90;;;;;;4994630;28;20033;-51
2022/09/05 00:48:52;;;;;;;8.88;3.15;;;18.50;99.90;;;;;;4994636;28;20437;-52
2022/09/05 00:51:45;;;;;;;10.50;3.33;;;18.50;99.90;;;;;;4989261;28;20038;-49
2022/09/05 00:54:24;;;;;;;5.72;3.25;;;18.50;99.90;;;;;;4994406;28;20024;-54
2022/09/05 00:57:17;;;;;;;6.85;3.42;;;18.50;99.90;;;;;;4994547;28;20100;-51
2022/09/05 01:00:09;;;;;;;6.55;3.03;;;18.60;99.90;;;;;;4994245;28;20036;-49
2022/09/05 01:02:49;;;;;;;11.15;3.70;;;18.50;99.90;;;;;;4994197;28;20375;-48
2022/09/05 01:05:27;;;;;;;9.23;3.70;;;18.50;99.90;;;;;;5001406;28;20080;-51
2022/09/05 01:08:14;;;;;;;9.77;4.68;;;18.40;99.90;;;;;;5013757;28;20057;-51
2022/09/05 01:11:11;;;;;;;9.95;5.10;;;18.20;99.90;;;;;;5013971;28;20125;-50
2022/09/05 01:14:05;;;;;;;11.70;4.82;;;18.20;99.90;;;;;;5013654;28;20506;-54
2022/09/05 01:17:11;;;;;;;12.38;6.50;;;18.10;99.90;;;;;;5013742;28;20040;-49
2022/09/05 01:20:07;;;;;;;14.65;6.22;;;18.00;99.90;;;;;;5011026;28;20504;-53
2022/09/05 01:22:58;;;;;;;10.43;6.30;;;18.00;99.90;;;;;;5013457;28;20505;-52
2022/09/05 01:25:47;;;;;;;9.77;5.68;;;18.10;99.90;;;;;;5013711;28;20024;-49
2022/09/05 01:28:13;;;;;;;9.68;4.65;;;18.10;99.90;;;;;;5013370;28;20089;-51
2022/09/05 01:30:56;;;;;;;11.02;4.90;;;18.10;99.90;;;;;;5012962;28;20117;-53
2022/09/05 01:33:33;;;;;;;7.55;4.50;;;18.10;99.90;;;;;;5013279;28;20381;-51
2022/09/05 01:36:24;;;;;;;8.50;4.32;;;18.10;99.90;;;;;;5013016;28;20400;-52
2022/09/05 01:39:35;;;;;;;10.35;4.47;;;18.10;99.90;;;;;;5010156;28;20023;-55
2022/09/05 01:42:40;;;;;;;14.82;4.70;;;18.10;99.90;;;;;;4979904;28;20185;-54
2022/09/05 01:45:22;;;;;;;7.43;4.45;;;18.10;99.90;;;;;;5013129;28;20096;-48
2022/09/05 01:48:00;;;;;;;12.50;5.15;;;18.00;99.90;;;;;;5013152;28;20445;-51
2022/09/05 01:50:47;;;;;;;9.80;4.15;;;18.00;99.90;;;;;;4995320;28;20042;-46
2022/09/05 01:53:34;;;;;;;9.63;4.32;;;18.00;99.90;;;;;;5013043;28;20026;-47
2022/09/05 01:56:11;;;;;;;8.25;4.47;;;17.90;99.90;;;;;;5012854;28;20405;-50
2022/09/05 01:58:55;;;;;;;10.05;4.70;;;17.90;99.90;;;;;;4995358;28;20448;-49
2022/09/05 02:01:39;;;;;;;7.50;4.47;;;17.90;99.90;;;;;;5009919;28;20038;-46
2022/09/05 02:04:34;;;;;;;8.95;4.95;;;17.90;99.90;;;;;;5011189;28;20160;-50
2022/09/05 02:07:18;;;;;;;12.10;4.93;;;17.90;99.90;;;;;;5008983;28;20038;-53
2022/09/05 02:10:17;;;;;;;10.43;5.03;;;17.90;99.90;;;;;;5011499;28;20042;-50
2022/09/05 02:12:53;;;;;;;9.15;4.78;;;17.90;99.90;;;;;;5006213;28;20025;-50
2022/09/05 02:15:24;;;;;;;11.13;5.25;;;17.80;99.90;;;;;;5012838;28;20022;-51
2022/09/05 02:17:56;;;;;;;8.13;4.50;;;17.80;99.90;;;;;;5010520;28;20028;-50
2022/09/05 02:20:30;;;;;;;9.48;4.70;;;17.80;99.90;;;;;;5012612;28;20034;-51
2022/09/05 02:23:09;;;;;;;9.57;3.88;;;17.70;99.90;;;;;;5012379;28;20543;-51
2022/09/05 02:25:43;;;;;;;6.83;3.90;;;17.70;99.90;;;;;;5012562;28;20018;-50
2022/09/05 02:28:47;;;;;;;8.48;3.80;;;17.70;99.90;;;;;;5012246;28;20503;-51
2022/09/05 02:31:22;;;;;;;11.85;4.13;;;17.70;99.90;;;;;;4954540;28;20383;-51
2022/09/05 02:33:58;;;;;;;8.55;3.95;;;17.70;99.90;;;;;;5002418;28;20046;-55
2022/09/05 02:36:47;;;;;;;7.95;3.50;;;17.60;99.90;;;;;;5012119;28;20389;-52
2022/09/05 02:39:59;;;;;;;8.30;3.80;;;17.60;99.90;;;;;;5005670;28;20073;-49
2022/09/05 02:42:53;;;;;;;7.35;3.67;;;17.60;99.90;;;;;;5010832;28;20026;-49
2022/09/05 02:45:43;;;;;;;6.82;3.90;;;17.60;99.90;;;;;;5011878;28;20034;-45
2022/09/05 02:48:28;;;;;;;10.20;3.72;;;17.50;99.90;;;;;;5011477;28;20022;-52
2022/09/05 02:50:59;;;;;;;7.97;3.80;;;17.60;99.90;;;;;;5011207;28;20030;-49
2022/09/05 02:53:26;;;;;;;9.27;4.72;;;17.50;99.90;;;;;;5005318;28;20116;-56
2022/09/05 02:56:04;;;;;;;7.72;4.07;;;17.60;99.90;;;;;;5010179;28;20469;-58
2022/09/05 02:58:44;;;;;;;8.95;4.07;;;17.60;99.90;;;;;;5001069;28;20053;-58
2022/09/05 03:01:13;;;;;;;7.28;3.70;;;17.60;99.90;;;;;;5001994;28;20202;-51
2022/09/05 03:03:45;;;;;;;;;;;17.50;99.90;;;;;;5008512;28;20429;-53
2022/09/05 03:06:34;;;;;;;9.15;3.80;;;17.50;99.90;;;;;;5011308;28;19932;-51
2022/09/05 03:09:36;;;;;;;8.85;4.18;;;17.50;99.90;;;;;;5007502;28;20026;-51
2022/09/05 03:12:27;;;;;;;9.48;4.18;;;17.50;99.90;;;;;;5006801;28;20100;-49
2022/09/05 03:14:58;;;;;;;11.60;4.50;;;17.40;99.90;;;;;;5011267;28;21452;-51
2022/09/05 03:17:48;;;;;;;7.57;3.92;;;17.40;99.90;;;;;;5011349;28;20537;-51
2022/09/05 03:20:19;;;;;;;8.10;4.22;;;17.40;99.90;;;;;;5011294;28;20496;-51
2022/09/05 03:23:07;;;;;;;9.40;4.25;;;17.40;99.90;;;;;;5011418;28;20054;-52
2022/09/05 03:25:45;;;;;;;8.82;3.65;;;17.40;99.90;;;;;;4989121;28;20060;-53
2022/09/05 03:28:55;;;;;;;10.63;4.35;;;17.40;99.90;;;;;;4999121;28;20030;-52
2022/09/05 03:31:59;;;;;;;12.70;4.63;;;17.30;99.90;;;;;;5010866;28;20049;-53
2022/09/05 03:34:58;;;;;;;7.60;4.07;;;17.20;99.90;;;;;;4989594;28;20122;-55
2022/09/05 03:37:49;;;;;;;7.32;3.95;;;17.20;99.90;;;;;;5004926;28;20038;-52
2022/09/05 03:40:27;;;;;;;9.98;4.38;;;17.20;99.90;;;;;;5000093;28;20025;-55
2022/09/05 03:43:01;;;;;;;10.85;4.80;;;17.20;99.90;;;;;;5011044;28;20033;-54
2022/09/05 03:46:01;;;;;;;9.88;4.38;;;17.10;99.90;;;;;;5011253;28;20029;-49
2022/09/05 03:48:46;;;;;;;7.50;4.32;;;17.10;99.90;;;;;;4997668;28;20026;-53
2022/09/05 03:51:30;;;;;;;9.70;4.50;;;17.00;99.90;;;;;;4993285;28;20045;-47
2022/09/05 03:54:25;;;;;;;10.98;4.35;;;17.00;99.90;;;;;;5011167;28;20037;-51
2022/09/05 03:57:03;;;;;;;12.82;4.13;;;16.90;99.90;;;;;;5010857;28;20050;-51
2022/09/05 03:59:28;;;;;;;8.68;4.20;;;16.90;99.90;;;;;;5013353;28;20033;-51
2022/09/05 04:02:03;;;;;;;8.35;4.22;;;16.90;99.90;;;;;;5001203;28;20029;-52
2022/09/05 04:04:41;;;;;;;7.13;4.15;;;16.90;99.90;;;;;;5014855;28;20473;-56
2022/09/05 04:07:25;;;;;;;7.53;3.92;;;16.90;99.90;;;;;;5014840;28;20045;-56
2022/09/05 04:10:06;;;;;;;8.50;3.80;;;16.90;99.90;;;;;;5014687;28;20077;-57
2022/09/05 04:12:48;;;;;;;6.25;4.38;;;16.90;99.90;;;;;;4998218;28;20021;-52
2022/09/05 04:15:39;;;;;;;11.00;4.18;;;16.90;99.90;;;;;;5011034;28;20424;-53
2022/09/05 04:18:18;;;;;;;7.38;3.50;;;16.90;99.90;;;;;;5014210;28;20153;-58
2022/09/05 04:21:15;;;;;;;7.03;4.20;;;16.90;99.90;;;;;;5009616;28;20084;-52
2022/09/05 04:23:47;;;;;;;10.18;3.47;;;16.80;99.90;;;;;;5003906;28;20489;-53
2022/09/05 04:26:33;;;;;;;6.70;3.65;;;16.80;99.90;;;;;;5010984;28;20034;-53
2022/09/05 04:29:35;;;;;;;6.78;3.70;;;16.70;99.90;;;;;;5011169;28;20477;-51
2022/09/05 04:32:18;;;;;;;6.50;3.30;;;16.70;99.90;;;;;;4999631;28;20069;-50
2022/09/05 04:35:38;;;;;;;8.75;3.97;;;16.70;99.90;;;;;;4994884;28;20026;-49
2022/09/05 04:38:15;;;;;;;6.50;3.50;;;16.70;99.90;;;;;;4968328;28;20044;-50
2022/09/05 04:40:55;;;;;;;10.88;3.83;;;16.70;99.90;;;;;;5005836;28;20022;-47
2022/09/05 04:43:41;;;;;;;7.68;3.92;;;16.70;99.90;;;;;;4994655;28;20061;-51
2022/09/05 04:46:21;;;;;;;7.55;4.03;;;16.70;99.90;;;;;;4994486;28;20037;-49
2022/09/05 04:49:05;;;;;;;8.55;4.75;;;16.70;99.90;;;;;;5001798;28;20165;-49
2022/09/05 04:51:58;;;;;;;8.52;3.58;;;16.70;99.90;;;;;;4996795;28;20497;-55
2022/09/05 04:54:28;;;;;;;8.70;3.58;;;16.70;99.90;;;;;;5007542;28;20156;-52
2022/09/05 04:57:09;;;;;;;6.75;4.03;;;16.70;99.90;;;;;;5003922;28;20026;-51
2022/09/05 04:59:46;;;;;;;6.97;3.53;;;16.70;99.90;;;;;;5005408;28;20031;-50
2022/09/05 05:02:27;;;;;;;8.30;3.58;;;16.70;99.90;;;;;;5002023;28;20030;-49
2022/09/05 05:05:01;;;;;;;8.15;3.63;;;16.60;99.90;;;;;;5005181;28;20037;-55
2022/09/05 05:07:39;;;;;;;8.38;3.80;;;16.60;99.90;;;;;;4996013;28;20034;-52
2022/09/05 05:10:08;;;;;;;9.23;3.95;;;16.60;99.90;;;;;;5005865;28;20551;-52
2022/09/05 05:12:40;;;;;;;7.70;3.67;;;16.60;99.90;;;;;;4994099;28;20031;-51
2022/09/05 05:15:16;;;;;;;8.73;3.50;;;16.60;99.90;;;;;;4994205;28;20022;-54
2022/09/05 05:18:22;;;;;;;6.32;3.50;;;16.60;99.90;;;;;;4992520;28;20520;-49
2022/09/05 05:20:55;;;;;;;9.63;4.15;;;16.60;99.90;;;;;;5002230;28;20477;-53
2022/09/05 05:23:31;;;;;;;8.90;3.90;;;16.60;99.90;;;;;;5000301;28;20088;-55
2022/09/05 05:26:01;;;;;;;7.13;3.58;;;16.50;99.90;;;;;;5003658;28;20045;-50
2022/09/05 05:28:51;;;;;;;9.93;3.58;;;16.50;99.90;;;;;;5009809;28;20334;-50
2022/09/05 05:31:22;;;;;;;6.80;3.70;;;16.50;99.90;;;;;;5006953;28;20375;-49
2022/09/05 05:33:50;;;;;;;10.38;3.78;;;16.50;99.90;;;;;;5011136;28;20018;-55
2022/09/05 05:36:26;;;;;;;6.22;3.10;;;16.50;99.90;;;;;;4998354;28;20088;-56
2022/09/05 05:39:25;;;;;;;7.13;3.30;;;16.50;99.90;;;;;;4998457;28;20057;-52
2022/09/05 05:41:52;;;;;;;11.10;3.60;;;16.60;99.90;;;;;;5003797;28;20401;-51
2022/09/05 05:44:26;;;;;;;8.38;3.20;;;16.60;99.90;;;;;;5007430;28;20057;-48
2022/09/05 05:47:17;;;;;;;8.55;3.42;;;16.60;99.90;;;;;;5010517;28;20121;-50
2022/09/05 05:50:26;;;;;;;8.32;3.10;;;16.70;99.90;;;;;;5008604;28;20437;-50
2022/09/05 05:53:10;;;;;;;6.90;2.78;;;16.80;99.90;;;;;;4995747;28;20030;-50
2022/09/05 05:56:10;;;;;;;6.10;2.70;;;16.80;99.90;;;;;;4993150;28;20027;-52
2022/09/05 05:58:50;;;;;;;6.82;3.05;;;16.90;99.90;;;;;;4993290;28;20045;-50
2022/09/05 06:01:54;;;;;;;15.27;3.80;;;17.00;99.90;;;;;;4993219;28;20080;-49
2022/09/05 06:04:29;;;;;;;6.22;3.05;;;17.00;99.90;;;;;;4948834;28;20524;-48
2022/09/05 06:07:20;;;;;;;4.65;3.00;;;17.00;99.90;;;;;;5008593;28;20034;-48
2022/09/05 06:09:58;;;;;;;6.93;3.50;;;17.10;99.90;;;;;;5006532;28;20104;-48
2022/09/05 06:12:43;;;;;;;5.43;3.42;;;17.20;99.90;;;;;;4993106;28;20116;-53
2022/09/05 06:15:46;;;;;;;6.97;3.42;;;17.20;99.90;;;;;;4992753;28;20080;-48
2022/09/05 06:18:18;;;;;;;5.63;3.20;;;17.30;99.90;;;;;;4992389;28;20022;-51
2022/09/05 06:20:55;;;;;;;7.38;2.80;;;17.40;99.90;;;;;;4991771;28;20038;-53
2022/09/05 06:23:43;;;;;;;5.05;3.20;;;17.50;99.90;;;;;;4991408;28;20025;-48
2022/09/05 06:26:43;;;;;;;8.02;2.97;;;17.50;99.90;;;;;;4992645;28;20023;-50
2022/09/05 06:29:27;;;;;;;7.00;2.80;;;17.60;99.90;;;;;;4992721;28;20059;-53
2022/09/05 06:32:23;;;;;;;6.30;3.28;;;17.70;99.90;;;;;;5001468;28;20034;-55
2022/09/05 06:35:23;;;;;;;7.88;3.40;;;17.80;99.90;;;;;;4992548;28;20111;-50
2022/09/05 06:37:52;;;;;;;8.57;3.45;;;17.90;99.90;;;;;;4992420;28;20030;-47
2022/09/05 06:40:39;;;;;;;7.85;3.35;;;18.00;99.90;;;;;;4999933;28;20066;-47
2022/09/05 06:43:26;;;;;;;11.32;3.45;;;18.10;99.90;;;;;;4991606;28;20054;-50
2022/09/05 06:46:16;;;;;;;9.45;3.30;;;18.10;99.90;;;;;;4991070;28;20470;-50
2022/09/05 06:48:47;;;;;;;9.48;3.70;;;18.20;99.90;;;;;;4991917;28;20026;-50
2022/09/05 06:51:45;;;;;;;8.93;3.38;;;18.20;99.90;;;;;;4992083;28;20027;-50
2022/09/05 06:54:43;;;;;;;12.80;3.40;;;18.30;99.90;;;;;;4982055;28;20034;-51
2022/09/05 06:57:44;;;;;;;10.30;3.38;;;18.40;99.90;;;;;;4991878;28;20018;-53
2022/09/05 07:00:21;;;;;;;9.00;3.60;;;18.40;99.90;;;;;;4975770;28;20046;-57
2022/09/05 07:03:25;;;;;;;7.97;3.40;;;18.50;99.90;;;;;;4985820;28;20110;-48
2022/09/05 07:06:21;;;;;;;9.20;3.53;;;18.60;99.90;;;;;;5000131;28;20042;-48
2022/09/05 07:08:56;;;;;;;9.35;3.42;;;18.60;99.90;;;;;;4978385;28;20038;-48
2022/09/05 07:11:43;;;;;;;6.18;2.85;;;18.70;99.90;;;;;;5011383;28;20128;-51
2022/09/05 07:14:31;;;;;;;6.75;2.95;;;18.70;99.90;;;;;;5011583;28;20026;-55
2022/09/05 07:17:18;;;;;;;10.45;3.55;;;18.80;99.90;;;;;;5011560;28;20389;-52
2022/09/05 07:19:49;;;;;;;7.43;3.00;;;18.90;99.90;;;;;;5011456;28;20149;-51
2022/09/05 07:22:32;;;;;;;7.78;2.92;;;18.90;99.90;;;;;;5011258;28;20052;-50
2022/09/05 07:25:04;;;;;;;7.28;2.92;;;19.00;99.90;;;;;;5011296;28;20037;-50
2022/09/05 07:27:42;;;;;;;9.77;3.05;;;19.10;99.90;;;;;;5011308;28;20033;-50
2022/09/05 07:30:09;;;;;;;14.98;3.88;;;19.20;99.90;;;;;;5011120;28;20105;-53
2022/09/05 07:32:44;;;;;;;7.95;3.47;;;19.30;99.90;;;;;;5011438;28;20118;-49
2022/09/05 07:35:28;;;;;;;7.30;3.33;;;19.40;99.90;;;;;;5010600;28;20481;-51
2022/09/05 07:38:12;;;;;;;8.25;3.17;;;19.50;99.90;;;;;;4997854;28;20041;-48
2022/09/05 07:40:45;;;;;;;8.45;3.40;;;19.60;99.90;;;;;;5011193;28;20026;-51
2022/09/05 07:43:20;;;;;;;10.00;3.65;;;19.70;99.90;;;;;;5011011;28;20030;-52
2022/09/05 07:45:54;;;;;;;9.70;3.10;;;19.80;99.90;;;;;;5010983;28;20025;-53
2022/09/05 07:48:26;;;;;;;8.02;2.78;;;19.80;99.90;;;;;;5011082;28;20040;-52
2022/09/05 07:51:00;;;;;;;8.60;3.60;;;19.90;99.90;;;;;;5010862;28;20040;-51
2022/09/05 07:53:27;;;;;;;6.35;2.95;;;19.90;99.90;;;;;;5011174;28;20022;-55
2022/09/05 07:55:58;;;;;;;8.25;2.90;;;19.90;99.90;;;;;;5011019;28;20392;-51
2022/09/05 07:58:42;;;;;;;10.85;3.65;;;20.00;99.90;;;;;;5010978;28;20050;-52
2022/09/05 08:01:13;;;;;;;6.55;3.00;;;19.90;99.90;;;;;;4999359;28;20520;-51
2022/09/05 08:03:42;;;;;;;8.75;3.53;;;20.10;99.90;;;;;;5009564;28;20117;-51
2022/09/05 08:06:25;;;;;;;10.23;3.17;;;20.30;99.90;;;;;;5010609;28;20436;-53
2022/09/05 08:09:01;;;;;;;9.32;2.90;;;20.30;99.90;;;;;;5010847;28;20038;-57
2022/09/05 08:11:31;;;;;;;11.93;3.03;;;20.40;99.90;;;;;;5010917;28;20046;-49
2022/09/05 08:14:03;;;;;;;8.57;2.75;;;20.50;99.90;;;;;;5010810;28;20113;-50
2022/09/05 08:16:30;;;;;;;8.02;3.30;;;20.50;99.90;;;;;;4993252;28;20176;-52
2022/09/05 08:19:29;;;;;;;8.90;3.33;;;20.60;99.90;;;;;;5010629;28;20028;-54
2022/09/05 08:21:57;;;;;;;11.77;3.72;;;20.60;99.90;;;;;;5003190;28;20440;-52
2022/09/05 08:24:40;;;;;;;13.05;4.03;;;20.60;99.90;;;;;;5010874;28;20025;-51
2022/09/05 08:27:34;;;;;;;12.20;4.50;;;20.80;99.90;;;;;;5010784;28;20128;-51
2022/09/05 08:30:09;;;;;;;7.65;3.42;;;20.70;99.90;;;;;;5011021;28;20030;-53
2022/09/05 08:32:53;;;;;;;10.50;3.33;;;20.80;99.90;;;;;;5010504;28;20040;-49
2022/09/05 08:35:27;;;;;;;9.90;3.30;;;20.90;99.90;;;;;;5010413;28;20523;-47
2022/09/05 08:37:55;;;;;;;9.05;3.47;;;21.10;99.90;;;;;;4997214;28;20061;-48
2022/09/05 08:40:34;;;;;;;6.85;3.58;;;21.10;99.90;;;;;;4993144;28;20026;-48
2022/09/05 08:43:19;;;;;;;8.68;3.00;;;21.20;99.90;;;;;;5010672;28;20389;-51
2022/09/05 08:45:56;;;;;;;6.15;2.65;;;21.30;99.90;;;;;;5011454;28;20018;-52
2022/09/05 08:48:41;;;;;;;7.85;3.13;;;21.30;99.90;;;;;;5014209;28;20106;-51
2022/09/05 08:51:16;;;;;;;7.57;3.17;;;21.20;99.90;;;;;;5013997;28;20133;-53
2022/09/05 08:54:20;;;;;;;7.05;3.45;;;21.10;99.90;;;;;;5014126;28;20022;-47
2022/09/05 08:56:54;;;;;;;9.50;3.95;;;21.00;99.90;;;;;;4972745;28;20035;-48
2022/09/05 08:59:41;;;;;;;10.50;3.88;;;20.80;99.90;;;;;;5006270;28;20030;-54
2022/09/05 09:02:21;;;;;;;10.25;3.50;;;20.70;99.90;;;;;;5000196;28;20068;-52
2022/09/05 09:05:05;;;;;;;7.55;3.60;;;20.70;99.90;;;;;;5013582;28;20046;-48
2022/09/05 09:07:44;;;;;;;6.78;3.00;;;20.60;99.90;;;;;;5014027;28;20112;-53
2022/09/05 09:10:22;;;;;;;8.90;3.28;;;20.60;99.90;;;;;;5013623;28;20385;-52
2022/09/05 09:13:12;;;;;;;9.55;3.05;;;20.60;99.90;;;;;;5013709;28;20037;-48
2022/09/05 09:15:52;;;;;;;6.65;2.88;;;20.60;99.90;;;;;;5013536;28;20033;-52
2022/09/05 09:18:20;;;;;;;6.45;2.53;;;20.60;99.90;;;;;;5013903;28;20108;-48
2022/09/05 09:21:12;;;;;;;6.55;2.60;;;20.60;99.90;;;;;;4995787;28;20476;-50
2022/09/05 09:23:54;;;;;;;10.77;3.30;;;20.60;99.90;;;;;;4971616;28;20030;-48
2022/09/05 09:26:27;;;;;;;12.80;4.72;;;20.70;99.90;;;;;;5013641;28;20032;-51
2022/09/05 09:29:05;;;;;;;10.60;3.38;;;20.80;99.90;;;;;;5013635;28;20030;-48
2022/09/05 09:31:49;;;;;;;10.27;3.40;;;20.80;99.90;;;;;;4995930;28;20100;-52
2022/09/05 09:34:24;;;;;;;7.07;2.85;;;21.00;99.90;;;;;;5013245;28;20025;-48
2022/09/05 09:37:20;;;;;;;3.88;2.88;;;21.00;99.90;;;;;;5013109;28;20038;-51
2022/09/05 09:40:22;;;;;;;8.02;3.05;;;21.10;99.90;;;;;;5001366;28;20045;-54
2022/09/05 09:43:13;;;;;;;7.63;3.35;;;21.20;99.90;;;;;;5013386;28;20100;-54
2022/09/05 09:45:40;;;;;;;7.25;3.22;;;21.40;99.90;;;;;;5012627;28;20084;-50
2022/09/05 09:48:05;;;;;;;6.45;2.92;;;21.60;99.90;;;;;;5013195;28;20453;-47
2022/09/05 09:50:46;;;;;;;6.20;3.33;;;21.80;99.90;;;;;;5012840;28;20034;-51
2022/09/05 09:53:56;;;;;;;8.00;3.30;;;22.00;99.90;;;;;;4999428;28;20121;-54
2022/09/05 09:56:56;;;;;;;9.45;3.50;;;22.30;99.90;;;;;;4990714;28;20030;-48
2022/09/05 09:59:24;;;;;;;8.52;3.20;;;22.60;99.90;;;;;;5012803;28;20496;-51
2022/09/05 10:02:05;;;;;;;4.05;2.88;;;22.80;99.90;;;;;;4998901;28;20018;-50
2022/09/05 10:04:33;;;;;;;7.53;2.75;;;22.70;99.90;;;;;;5012678;28;20489;-48
2022/09/05 10:07:08;;;;;;;7.83;3.23;;;22.60;99.90;;;;;;5012865;28;20034;-52
2022/09/05 10:09:55;;;;;;;8.30;3.00;;;22.40;99.90;;;;;;5012548;28;20041;-48
2022/09/05 10:12:45;;;;;;;7.30;2.55;;;22.40;99.90;;;;;;4981412;28;20451;-52
2022/09/05 10:15:36;;;;;;;7.38;2.70;;;22.60;99.90;;;;;;5012155;28;20026;-48
2022/09/05 10:18:17;;;;;;;8.48;3.05;;;22.60;99.90;;;;;;5008605;28;20026;-57
2022/09/05 10:21:17;;;;;;;5.10;2.42;;;22.80;99.90;;;;;;5006392;28;20076;-50
2022/09/05 10:24:19;;;;;;;6.18;2.70;;;23.30;99.90;;;;;;5011449;28;20507;-48
2022/09/05 10:26:50;;;;;;;7.15;2.33;;;23.60;99.90;;;;;;5006835;28;20022;-55
2022/09/05 10:29:42;;;;;;;7.10;2.70;;;23.60;99.90;;;;;;4993080;28;20508;-50
2022/09/05 10:32:15;;;;;;;5.47;2.60;;;23.50;99.90;;;;;;4985599;28;20405;-51
2022/09/05 10:35:06;;;;;;;5.78;2.15;;;23.30;99.90;;;;;;4993983;28;20030;-53
2022/09/05 10:37:40;;;;;;;5.28;2.13;;;23.00;99.90;;;;;;4976154;28;20038;-48
2022/09/05 10:40:10;;;;;;;5.65;2.30;;;22.70;99.90;;;;;;4997036;28;20496;-50
2022/09/05 10:42:48;;;;;;;5.72;2.30;;;22.60;99.90;;;;;;4994818;28;20022;-48
2022/09/05 10:45:23;;;;;;;4.93;2.30;;;22.80;99.90;;;;;;4998235;28;20508;-46
2022/09/05 10:48:08;;;;;;;7.07;2.00;;;23.30;99.90;;;;;;4994073;28;20030;-52
2022/09/05 10:50:46;;;;;;;5.88;2.40;;;23.90;99.90;;;;;;4995160;28;20096;-46
2022/09/05 10:53:27;;;;;;;7.30;2.08;;;23.90;99.90;;;;;;5007649;28;20076;-48
2022/09/05 10:56:05;;;;;;;4.35;1.90;;;23.80;99.90;;;;;;4999693;28;20474;-52
2022/09/05 10:58:42;;;;;;;9.73;2.20;;;23.70;99.90;;;;;;5005058;28;20083;-57
2022/09/05 11:01:32;;;;;;;6.10;2.25;;;23.40;99.90;;;;;;5007362;28;20026;-50
2022/09/05 11:04:35;;;;;;;5.57;2.10;;;23.00;99.90;;;;;;5003079;28;20018;-54
2022/09/05 11:07:22;;;;;;;5.85;1.83;;;23.00;99.90;;;;;;4996210;28;20111;-53
2022/09/05 11:10:18;;;;;;;6.05;2.00;;;23.00;99.90;;;;;;4997101;28;20022;-49
2022/09/05 11:13:00;;;;;;;4.22;1.70;;;23.40;99.90;;;;;;5006028;28;20040;-51
2022/09/05 11:15:29;;;;;;;3.97;1.77;;;23.80;99.90;;;;;;4994322;28;20018;-51
2022/09/05 11:18:07;;;;;;;5.95;1.98;;;24.00;99.90;;;;;;4999952;28;20065;-58
2022/09/05 11:20:57;;;;;;;4.72;1.90;;;24.50;99.90;;;;;;4996489;28;20033;-56
2022/09/05 11:23:38;;;;;;;7.15;1.73;;;24.50;99.90;;;;;;4996426;28;20115;-55
2022/09/05 11:26:12;;;;;;;4.90;2.00;;;24.50;99.90;;;;;;5004477;28;20058;-48
2022/09/05 11:29:01;;;;;;;5.80;1.75;;;24.80;99.90;;;;;;5003625;28;20030;-51
2022/09/05 11:31:44;;;;;;;4.90;1.58;;;24.60;99.90;;;;;;4991483;28;20440;-54
2022/09/05 11:34:37;;;;;;;6.65;1.60;;;24.40;99.90;;;;;;4991219;28;20050;-54
2022/09/05 11:37:16;;;;;;;5.80;1.85;;;24.10;99.90;;;;;;4991262;28;20531;-49
2022/09/05 11:40:00;;;;;;;5.22;1.52;;;23.80;99.90;;;;;;4991563;28;20026;-51
2022/09/05 11:42:39;;;;;;;3.72;1.55;;;23.50;99.90;;;;;;4991149;28;20049;-48
2022/09/05 11:45:13;;;;;;;5.85;1.77;;;23.20;99.90;;;;;;4991515;28;20026;-48
2022/09/05 11:47:42;;;;;;;3.45;1.60;;;22.90;99.90;;;;;;4991164;28;20062;-54
2022/09/05 11:50:58;;;;;;;6.10;1.98;;;22.80;99.90;;;;;;4991259;28;20033;-48
2022/09/05 11:53:51;;;;;;;8.75;1.92;;;22.90;99.90;;;;;;4979287;28;20038;-48
2022/09/05 11:56:32;;;;;;;5.68;1.60;;;23.10;99.90;;;;;;4998793;28;20034;-48
2022/09/05 11:59:03;;;;;;;5.25;2.00;;;23.40;99.90;;;;;;4991285;28;20133;-52
2022/09/05 12:01:40;;;;;;;4.43;2.22;;;23.70;99.90;;;;;;4991774;28;20100;-51
2022/09/05 12:04:34;;;;;;;5.68;1.80;;;23.80;99.90;;;;;;5011045;28;20033;-52
2022/09/05 12:07:09;;;;;;;7.10;2.10;;;23.80;99.90;;;;;;5010781;28;20092;-53
2022/09/05 12:09:51;;;;;;;4.88;1.90;;;23.80;99.90;;;;;;5011000;28;20046;-51
2022/09/05 12:12:34;;;;;;;8.13;1.80;;;23.90;99.90;;;;;;5010808;28;20038;-48
2022/09/05 12:15:22;;;;;;;6.88;1.70;;;24.10;99.90;;;;;;5011029;28;20026;-44
2022/09/05 12:18:09;;;;;;;6.15;1.83;;;24.40;99.90;;;;;;5000064;28;20026;-45
2022/09/05 12:20:49;;;;;;;6.15;1.60;;;24.50;99.90;;;;;;5011296;28;20025;-50
2022/09/05 12:23:52;;;;;;;6.18;1.65;;;24.30;99.90;;;;;;5010607;28;20164;-51
2022/09/05 12:26:35;;;;;;;6.03;1.65;;;24.20;99.90;;;;;;5004482;28;20034;-53
2022/09/05 12:29:26;;;;;;;5.30;1.38;;;24.40;99.90;;;;;;4995023;28;20041;-48
2022/09/05 12:31:57;;;;;;;3.70;1.25;;;24.50;99.90;;;;;;4994966;28;20034;-52
2022/09/05 12:34:54;;;;;;;6.25;1.70;;;24.40;99.10;;;;;;5003227;28;20033;-48
2022/09/05 12:37:43;;;;;;;4.78;1.65;;;24.60;99.70;;;;;;4998056;28;20042;-52
2022/09/05 12:40:12;;;;;;;6.72;1.45;;;24.90;99.80;;;;;;4994847;28;20030;-48
2022/09/05 12:42:51;;;;;;;2.63;1.27;;;25.10;99.80;;;;;;5002164;28;20121;-51
2022/09/05 12:45:31;;;;;;;2.90;1.20;;;25.20;99.00;;;;;;5013980;28;20115;-47
2022/09/05 12:48:12;;;;;;;4.95;1.65;;;25.30;99.00;;;;;;5014281;28;20045;-53
2022/09/05 12:50:55;;;;;;;3.97;1.20;;;25.60;98.30;;;;;;5013656;28;20129;-49
2022/09/05 12:53:23;;;;;;;5.88;1.70;;;25.60;97.10;;;;;;5006189;28;20042;-49
2022/09/05 12:55:57;;;;;;;4.25;1.75;;;25.90;99.40;;;;;;5009435;28;20026;-46
2022/09/05 12:58:24;;;;;;;3.25;1.25;;;26.10;95.60;;;;;;4999551;28;20033;-49
2022/09/05 13:00:53;;;;;;;3.08;1.35;;;26.10;96.10;;;;;;5005082;28;20032;-49
2022/09/05 13:03:26;;;;;;;4.38;1.60;;;26.50;96.20;;;;;;5009371;28;20025;-50
2022/09/05 13:06:08;;;;;;;4.32;1.33;;;26.50;95.20;;;;;;5013439;28;20049;-55
2022/09/05 13:08:47;;;;;;;5.78;1.80;;;26.60;95.80;;;;;;4996895;28;20025;-52
2022/09/05 13:11:17;;;;;;;4.28;1.35;;;26.60;95.60;;;;;;4994235;28;20026;-51
2022/09/05 13:13:59;;;;;;;4.50;1.30;;;26.80;96.80;;;;;;4994105;28;20030;-49
2022/09/05 13:16:28;;;;;;;3.83;1.20;;;27.20;95.40;;;;;;4994247;28;20029;-47
2022/09/05 13:19:06;;;;;;;4.60;1.58;;;27.40;95.20;;;;;;4993912;28;20046;-52
2022/09/05 13:21:38;;;;;;;6.55;1.55;;;27.70;95.00;;;;;;4997159;28;20035;-47
2022/09/05 13:24:04;;;;;;;3.72;1.52;;;27.70;93.50;;;;;;4993921;28;20031;-50
2022/09/05 13:26:38;;;;;;;3.03;1.25;;;27.30;93.40;;;;;;4993826;28;20018;-50
2022/09/05 13:29:21;;;;;;;3.13;1.30;;;27.00;94.00;;;;;;4993802;28;20069;-50
2022/09/05 13:31:51;;;;;;;4.95;1.30;;;26.50;93.70;;;;;;4993341;28;20092;-51
2022/09/05 13:34:42;;;;;;;4.68;1.15;;;26.70;95.70;;;;;;4993574;28;20477;-50
2022/09/05 13:37:30;;;;;;;4.80;1.00;;;26.70;94.40;;;;;;4993856;28;20126;-47
2022/09/05 13:40:14;;;;;;;4.68;1.45;;;26.50;94.80;;;;;;4993606;28;20019;-52
2022/09/05 13:42:43;;;;;;;4.80;1.23;;;26.40;96.40;;;;;;4993438;28;20022;-52
2022/09/05 13:45:17;;;;;;;3.55;1.17;;;26.40;95.90;;;;;;4993489;28;20049;-53
2022/09/05 13:48:14;;;;;;;5.38;1.50;;;26.30;95.40;;;;;;4993289;28;20030;-49
2022/09/05 13:50:45;;;;;;;3.35;1.45;;;25.90;94.80;;;;;;4995810;28;20486;-52
2022/09/05 13:53:32;;;;;;;4.60;1.50;;;25.70;95.00;;;;;;4993310;28;20434;-53
2022/09/05 13:56:29;;;;;;;3.03;1.00;;;25.70;95.70;;;;;;5005958;28;20049;-53
2022/09/05 13:59:09;;;;;;;2.22;1.33;;;25.80;93.70;;;;;;4981420;28;20113;-55
2022/09/05 14:01:53;;;;;;;4.15;1.38;;;25.80;94.30;;;;;;4994655;28;20041;-47
2022/09/05 14:04:34;;;;;;;4.25;1.50;;;25.70;93.70;;;;;;5012927;28;20018;-51